Últimos artigos:
Visita à exposição MOTION no Guggenheim de Bilbao
MSK144, FT8… using an IC-9700 and WSJT-X
Resolvendo um problema de áudio no GNU Radio
Converter um número Real para o formato binário em vírgula flutuante segundo a Norma IEEE-754
VirtualBox sobre Debian 10 (buster) não encontra dispositivos USB
Falta de som no Morse Runner em Linux?
Últimas fotos:
Últimos METARs:
LPAZ 011500Z 12012KT 090V150 9999 FEW022 1...
LPFR 011500Z 16006KT CAVOK 15/06 Q1026=
LPHR 011500Z 13010KT 9999 FEW020 17/11 Q10...
LPLA 011500Z /////KT 9999 FEW022 16/11 Q10...
LPMA 011500Z 04009KT 010V080 9999 SCT018 F...
LPPD 011500Z 12012KT 080V140 9999 VCSH FEW...
LPPR 011500Z 10008KT 070V130 CAVOK 15/03 Q...
LPPS 011500Z 10015KT 9999 FEW015 18/10 Q10...
LPPT 011500Z 08005KT CAVOK 12/06 Q1026=
Últimos QSOs:
2022/12/05-18:34 2m CN8JQ (MOHAMED)
2022/12/05-18:31 2m 7X3YOTA (YOUNGSTERS)
2022/12/05-18:29 2m EA7JHK (ANGEL)
2022/12/05-18:28 2m G3OUA (DAVE)
2022/11/06-21:07 2m CT1DMC (RUI)
2022/10/23-20:02 2m CT1ETE (PAULO)
  UTC
Rpi-6 CPU Temp: 0.0 °C (19Z)
IN51oq 1542Z /////KT //// 20/11 Q1027=
351892